Time;durP1;ratioP1;P1;durP2;ratioP2;P2;SDS_P1;SDS_P2;PMS_P1;PMS_P2;Temp;Humidity;BMP_temperature;BMP_pressure;BME280_temperature;BME280_humidity;BME280_pressure;Samples;Min_cycle;Max_cycle;Signal;HPM_P1;HPM_P2
2022/04/27 00:00:57;;;;;;;16.38;10.00;;;7.40;99.90;;;;;;5077481;28;20013;-82
2022/04/27 00:03:23;;;;;;;13.27;8.57;;;7.40;99.90;;;;;;5060775;28;20036;-82
2022/04/27 00:05:50;;;;;;;15.05;9.90;;;7.40;99.90;;;;;;5079072;28;20421;-82
2022/04/27 00:08:15;;;;;;;16.13;8.10;;;7.40;99.90;;;;;;5061272;28;20119;-82
2022/04/27 00:10:42;;;;;;;12.70;8.57;;;7.40;99.90;;;;;;5064157;28;20491;-80
2022/04/27 00:13:14;;;;;;;16.65;8.73;;;7.40;99.90;;;;;;5041627;28;20029;-83
2022/04/27 00:15:40;;;;;;;15.10;9.25;;;7.40;99.90;;;;;;5040888;28;20029;-83
2022/04/27 00:18:06;;;;;;;13.95;8.23;;;7.40;99.90;;;;;;5040954;28;20087;-83
2022/04/27 00:20:31;;;;;;;15.65;8.90;;;7.40;99.90;;;;;;5058928;28;20025;-81
2022/04/27 00:22:57;;;;;;;15.32;8.95;;;7.40;99.90;;;;;;5058703;28;20077;-82
2022/04/27 00:25:23;;;;;;;13.73;8.70;;;7.30;99.90;;;;;;5060879;28;20028;-82
2022/04/27 00:27:49;;;;;;;16.15;8.85;;;7.30;99.90;;;;;;5061529;28;20032;-83
2022/04/27 00:30:15;;;;;;;13.20;8.85;;;7.30;99.90;;;;;;5068707;28;20120;-81
2022/04/27 00:32:40;;;;;;;23.33;8.80;;;7.40;99.90;;;;;;5043990;28;20029;-82
2022/04/27 00:35:08;;;;;;;15.68;8.80;;;7.30;99.90;;;;;;5040579;28;20033;-82
2022/04/27 00:37:34;;;;;;;13.52;8.07;;;7.30;99.90;;;;;;5057936;28;20017;-83
2022/04/27 00:40:00;;;;;;;16.50;8.40;;;7.30;99.90;;;;;;5038812;28;20025;-81
2022/04/27 00:42:25;;;;;;;12.93;7.38;;;7.30;99.90;;;;;;5057233;28;20026;-83
2022/04/27 00:44:51;;;;;;;12.15;7.47;;;7.30;99.90;;;;;;5057504;28;20100;-80
2022/04/27 00:47:18;;;;;;;12.32;8.00;;;7.30;99.90;;;;;;5039671;28;20021;-84
2022/04/27 00:49:46;;;;;;;12.45;8.30;;;7.20;99.90;;;;;;5057472;28;20025;-80
2022/04/27 00:52:14;;;;;;;13.50;8.88;;;7.20;99.90;;;;;;5057943;28;20025;-81
2022/04/27 00:54:46;;;;;;;14.25;8.05;;;7.20;99.90;;;;;;5039559;28;20033;-83
2022/04/27 00:57:11;;;;;;;12.77;8.23;;;7.10;99.90;;;;;;5057956;28;20025;-80
2022/04/27 00:59:38;;;;;;;12.02;7.80;;;7.20;99.90;;;;;;5057240;28;20035;-81
2022/04/27 01:02:05;;;;;;;13.75;8.10;;;7.10;99.90;;;;;;5057046;28;20024;-82
2022/04/27 01:04:33;;;;;;;16.10;7.75;;;7.10;99.90;;;;;;5039251;28;20029;-83
2022/04/27 01:06:59;;;;;;;10.73;7.40;;;7.10;99.90;;;;;;5058161;28;20013;-82
2022/04/27 01:09:25;;;;;;;11.60;7.55;;;7.10;99.90;;;;;;5043832;28;20107;-84
2022/04/27 01:11:51;;;;;;;12.27;8.45;;;7.10;99.90;;;;;;5059135;28;20035;-84
2022/04/27 01:14:18;;;;;;;12.30;7.40;;;7.10;99.90;;;;;;5058900;28;20519;-81
2022/04/27 01:16:51;;;;;;;13.10;7.70;;;7.10;99.90;;;;;;5077208;28;20039;-84
2022/04/27 01:19:17;;;;;;;11.52;7.20;;;7.10;99.90;;;;;;5058902;28;20078;-82
2022/04/27 01:21:43;;;;;;;15.07;7.47;;;7.00;99.90;;;;;;5076996;28;20071;-80
2022/04/27 01:24:11;;;;;;;13.00;7.68;;;7.00;99.90;;;;;;5076818;28;20412;-81
2022/04/27 01:26:40;;;;;;;14.25;7.90;;;7.00;99.90;;;;;;5058666;28;20021;-80
2022/04/27 01:29:05;;;;;;;15.13;8.15;;;7.00;99.90;;;;;;5059118;28;20017;-80
2022/04/27 01:31:31;;;;;;;12.43;7.93;;;6.90;99.90;;;;;;5076871;28;20104;-82
2022/04/27 01:33:57;;;;;;;16.92;9.13;;;6.90;99.90;;;;;;5058213;28;20059;-82
2022/04/27 01:36:23;;;;;;;12.57;7.10;;;6.90;99.90;;;;;;5076063;28;20035;-80
2022/04/27 01:38:49;;;;;;;15.80;8.32;;;6.80;99.90;;;;;;5076416;28;20524;-85
2022/04/27 01:41:17;;;;;;;14.02;8.63;;;6.80;99.90;;;;;;5076140;28;20126;-80
2022/04/27 01:43:42;;;;;;;14.05;8.07;;;6.80;99.90;;;;;;5058039;28;20021;-80
2022/04/27 01:46:09;;;;;;;11.60;7.50;;;6.80;99.90;;;;;;5059426;28;20021;-81
2022/04/27 01:48:35;;;;;;;12.65;8.10;;;6.80;99.90;;;;;;5058128;28;20028;-82
2022/04/27 01:51:01;;;;;;;14.60;9.00;;;6.80;99.90;;;;;;5058388;28;20034;-82
2022/04/27 01:56:11;;;;;;;15.68;7.97;;;6.70;99.90;;;;;;5075651;28;20032;-82
2022/04/27 01:58:36;;;;;;;13.50;7.78;;;6.80;99.90;;;;;;5075801;28;20365;-81
2022/04/27 02:01:03;;;;;;;14.50;7.65;;;6.80;99.90;;;;;;5058330;28;20025;-81
2022/04/27 02:03:28;;;;;;;13.32;8.65;;;6.80;99.90;;;;;;5058620;28;20021;-82
2022/04/27 02:05:54;;;;;;;15.00;8.50;;;6.80;99.90;;;;;;5077196;28;20028;-81
2022/04/27 02:08:21;;;;;;;14.00;8.50;;;6.80;99.90;;;;;;5076603;28;20109;-82
2022/04/27 02:10:46;;;;;;;12.57;8.77;;;6.80;99.90;;;;;;5045603;28;20025;-82
2022/04/27 02:13:12;;;;;;;15.07;8.23;;;6.80;99.90;;;;;;5047118;28;20021;-81
2022/04/27 02:15:40;;;;;;;13.85;9.15;;;6.80;99.90;;;;;;5064475;28;20021;-80
2022/04/27 02:18:06;;;;;;;13.77;8.70;;;6.70;99.90;;;;;;5039597;28;20492;-81
2022/04/27 02:20:32;;;;;;;15.50;8.40;;;6.70;99.90;;;;;;5055153;28;20021;-82
2022/04/27 02:22:58;;;;;;;13.35;8.15;;;6.70;99.90;;;;;;5054907;28;20029;-81
2022/04/27 02:25:24;;;;;;;10.38;7.63;;;6.70;99.90;;;;;;5056022;28;20099;-81
2022/04/27 02:27:50;;;;;;;13.20;8.48;;;6.70;99.90;;;;;;5037444;28;20434;-82
2022/04/27 02:30:18;;;;;;;12.40;8.55;;;6.70;99.90;;;;;;5055726;28;20055;-85
2022/04/27 02:32:46;;;;;;;13.07;8.85;;;6.70;99.90;;;;;;5038385;28;20396;-81
2022/04/27 02:35:12;;;;;;;13.55;8.18;;;6.60;99.90;;;;;;5038280;28;20059;-81
2022/04/27 02:37:38;;;;;;;16.27;7.75;;;6.60;99.90;;;;;;5056980;28;20079;-81
2022/04/27 02:40:05;;;;;;;11.50;8.43;;;6.50;99.90;;;;;;5038295;28;20082;-81
2022/04/27 02:42:32;;;;;;;13.27;8.63;;;6.40;99.90;;;;;;5059853;28;20036;-82
2022/04/27 02:44:58;;;;;;;14.98;8.57;;;6.40;99.90;;;;;;5046934;28;20039;-81
2022/04/27 02:47:23;;;;;;;13.40;9.63;;;6.30;99.90;;;;;;5055783;28;20032;-83
2022/04/27 02:52:33;;;;;;;14.85;9.25;;;6.30;99.90;;;;;;5055029;28;20404;-81
2022/04/27 02:54:59;;;;;;;12.50;8.85;;;6.20;99.90;;;;;;5037237;28;20021;-82
2022/04/27 02:57:25;;;;;;;15.75;9.55;;;6.20;99.90;;;;;;5037079;28;20021;-81
2022/04/27 02:59:50;;;;;;;15.43;9.43;;;6.20;99.90;;;;;;5055489;28;20028;-80
2022/04/27 03:02:16;;;;;;;18.67;9.68;;;6.20;99.90;;;;;;5037234;28;20028;-82
2022/04/27 03:04:42;;;;;;;13.65;9.27;;;6.10;99.90;;;;;;5037450;28;20047;-84
2022/04/27 03:07:08;;;;;;;20.58;10.45;;;6.20;99.90;;;;;;5055343;28;20442;-84
2022/04/27 03:09:34;;;;;;;19.48;9.48;;;6.20;99.90;;;;;;5061277;28;20111;-85
2022/04/27 03:12:00;;;;;;;15.25;9.75;;;6.20;99.90;;;;;;5075372;28;20029;-83
2022/04/27 03:14:25;;;;;;;16.30;10.95;;;6.30;99.90;;;;;;5076187;28;20036;-82
2022/04/27 03:16:52;;;;;;;17.02;10.93;;;6.30;99.90;;;;;;5075179;28;20034;-81
2022/04/27 03:19:19;;;;;;;17.52;10.85;;;6.40;99.90;;;;;;5074946;28;20020;-83
2022/04/27 03:21:44;;;;;;;16.33;10.05;;;6.40;99.90;;;;;;5075371;28;20037;-85
2022/04/27 03:24:10;;;;;;;17.58;9.52;;;6.40;99.90;;;;;;5057337;28;20051;-84
2022/04/27 03:26:36;;;;;;;17.98;10.93;;;6.50;99.90;;;;;;5075359;28;20530;-84
2022/04/27 03:29:03;;;;;;;13.57;8.30;;;6.50;99.90;;;;;;5075378;28;20029;-83
2022/04/27 03:31:29;;;;;;;13.90;9.85;;;6.50;99.90;;;;;;5076320;28;20016;-82
2022/04/27 03:33:54;;;;;;;15.10;10.43;;;6.50;99.90;;;;;;5076690;28;20104;-83
2022/04/27 03:36:20;;;;;;;16.90;10.65;;;6.50;99.90;;;;;;5062158;28;20102;-83
2022/04/27 03:38:48;;;;;;;13.95;9.65;;;6.50;99.90;;;;;;5062743;28;20057;-84
2022/04/27 03:41:17;;;;;;;15.95;9.32;;;6.50;99.90;;;;;;5079430;28;20024;-84
2022/04/27 03:43:44;;;;;;;19.20;10.10;;;6.50;99.90;;;;;;5080058;28;20020;-85
2022/04/27 03:46:09;;;;;;;14.88;9.90;;;6.50;99.90;;;;;;5062031;28;20063;-84
2022/04/27 03:48:35;;;;;;;18.27;10.13;;;6.50;99.90;;;;;;5061702;28;20024;-86
2022/04/27 03:51:01;;;;;;;18.20;9.70;;;6.50;99.90;;;;;;5080213;28;20074;-86
2022/04/27 03:53:27;;;;;;;18.95;10.63;;;6.50;99.90;;;;;;5080901;28;20028;-85
2022/04/27 03:55:53;;;;;;;15.95;10.98;;;6.50;99.90;;;;;;5078944;28;20447;-84
2022/04/27 03:58:19;;;;;;;15.25;10.85;;;6.40;99.90;;;;;;5079427;28;20028;-81
2022/04/27 04:00:45;;;;;;;15.55;10.48;;;6.40;99.90;;;;;;5079535;28;20021;-85
2022/04/27 04:03:13;;;;;;;16.70;10.60;;;6.50;99.90;;;;;;5079585;28;20487;-84
2022/04/27 04:05:39;;;;;;;16.67;10.60;;;6.40;99.90;;;;;;5079209;28;20028;-84
2022/04/27 04:08:05;;;;;;;17.48;11.73;;;6.50;99.90;;;;;;5061688;28;20113;-87
2022/04/27 04:10:31;;;;;;;17.85;11.05;;;6.50;99.90;;;;;;5048420;28;20056;-84
2022/04/27 04:12:57;;;;;;;16.17;10.88;;;6.50;99.90;;;;;;5042805;28;20021;-85
2022/04/27 04:15:23;;;;;;;18.17;12.23;;;6.40;99.90;;;;;;5060892;28;20064;-84
2022/04/27 04:17:49;;;;;;;22.00;12.35;;;6.40;99.90;;;;;;5060449;28;20022;-81
2022/04/27 04:20:19;;;;;;;20.33;12.00;;;6.40;99.90;;;;;;5042360;28;20047;-84
2022/04/27 04:22:46;;;;;;;20.00;12.57;;;6.40;99.90;;;;;;5060097;28;20092;-84
2022/04/27 04:30:42;;;;;;;15.48;10.35;;;6.30;99.90;;;;;;5059967;28;20035;-84
2022/04/27 04:33:08;;;;;;;19.50;11.70;;;6.30;99.90;;;;;;5041142;28;20088;-85
2022/04/27 04:35:35;;;;;;;19.40;12.07;;;6.30;99.90;;;;;;5025039;28;20059;-85
2022/04/27 04:38:00;;;;;;;17.60;11.40;;;6.30;99.90;;;;;;5041894;28;20029;-86
2022/04/27 04:40:26;;;;;;;16.27;11.13;;;6.30;99.90;;;;;;5059943;28;20025;-84
2022/04/27 04:42:52;;;;;;;16.75;11.90;;;6.30;99.90;;;;;;5041453;28;20056;-82
2022/04/27 04:45:18;;;;;;;20.60;12.38;;;6.20;99.90;;;;;;5058855;28;20111;-82
2022/04/27 04:47:44;;;;;;;15.80;11.27;;;6.20;99.90;;;;;;5041026;28;20121;-83
2022/04/27 04:50:12;;;;;;;19.77;12.90;;;6.10;99.90;;;;;;5041512;28;20072;-85
2022/04/27 04:52:38;;;;;;;25.80;13.95;;;6.10;99.90;;;;;;5042046;28;20025;-82
2022/04/27 04:55:04;;;;;;;18.77;12.18;;;6.00;99.90;;;;;;5059219;28;20436;-85
2022/04/27 04:57:34;;;;;;;27.38;14.57;;;5.90;99.90;;;;;;5050948;28;20036;-82
2022/04/27 05:00:03;;;;;;;25.38;14.88;;;5.90;99.90;;;;;;5065467;28;20569;-84
2022/04/27 05:02:32;;;;;;;19.38;12.65;;;5.90;99.90;;;;;;5060502;28;20066;-83
2022/04/27 05:05:04;;;;;;;17.15;12.00;;;5.80;99.90;;;;;;5042248;28;20037;-84
2022/04/27 05:07:33;;;;;;;18.38;12.65;;;5.80;99.90;;;;;;5042197;28;20025;-82
2022/04/27 05:09:59;;;;;;;25.27;13.60;;;5.80;99.90;;;;;;5069669;28;20040;-84
2022/04/27 05:12:24;;;;;;;19.50;13.27;;;5.80;99.90;;;;;;5062833;28;20025;-86
2022/04/27 05:14:51;;;;;;;20.08;12.73;;;5.70;99.90;;;;;;5080778;28;20033;-85
2022/04/27 05:17:16;;;;;;;20.95;13.18;;;5.70;99.90;;;;;;5062863;28;20020;-84
2022/04/27 05:19:42;;;;;;;24.48;13.85;;;5.80;99.90;;;;;;5061557;28;20214;-83
2022/04/27 05:22:08;;;;;;;24.00;13.38;;;5.80;99.90;;;;;;5061607;28;20091;-82
2022/04/27 05:24:34;;;;;;;18.80;12.65;;;5.90;99.90;;;;;;5079424;28;20055;-85
2022/04/27 05:27:00;;;;;;;22.98;13.85;;;5.90;99.90;;;;;;5060500;28;20032;-83
2022/04/27 05:32:10;;;;;;;24.13;13.50;;;6.10;99.90;;;;;;5078443;28;20028;-84
2022/04/27 05:34:36;;;;;;;20.77;13.80;;;6.10;99.90;;;;;;5059914;28;20027;-86
2022/04/27 05:37:03;;;;;;;25.50;15.10;;;6.30;99.90;;;;;;5060637;28;20028;-85
2022/04/27 05:39:29;;;;;;;23.90;14.25;;;6.40;99.90;;;;;;5078706;28;20017;-83
2022/04/27 05:41:54;;;;;;;19.25;13.98;;;6.60;99.90;;;;;;5060371;28;20601;-84
2022/04/27 05:44:22;;;;;;;21.30;13.00;;;6.80;99.90;;;;;;5078277;28;20056;-83
2022/04/27 05:46:52;;;;;;;17.17;12.38;;;7.00;99.90;;;;;;5063350;28;20031;-85
2022/04/27 05:49:28;;;;;;;21.05;12.32;;;7.20;99.90;;;;;;5064357;28;20031;-85
2022/04/27 05:51:56;;;;;;;17.98;11.65;;;7.40;99.90;;;;;;5065039;28;20025;-82
2022/04/27 05:54:26;;;;;;;19.73;12.02;;;7.60;99.90;;;;;;5063001;28;20028;-83
2022/04/27 05:56:52;;;;;;;17.58;11.10;;;7.90;99.90;;;;;;5083419;28;20039;-85
2022/04/27 05:59:55;;;;;;;17.33;12.40;;;8.10;99.90;;;;;;5065093;28;20024;-86
2022/04/27 06:02:21;;;;;;;16.77;10.98;;;8.40;99.90;;;;;;5080721;28;20112;-87
2022/04/27 06:04:47;;;;;;;18.88;10.95;;;8.70;99.90;;;;;;5062135;28;20083;-85
2022/04/27 06:07:13;;;;;;;21.17;11.30;;;8.80;99.90;;;;;;5062511;28;20024;-84
2022/04/27 06:09:38;;;;;;;16.05;11.45;;;9.00;99.90;;;;;;5073155;28;20067;-84
2022/04/27 06:12:05;;;;;;;17.50;11.57;;;9.30;99.90;;;;;;5060604;28;20025;-86
2022/04/27 06:14:31;;;;;;;20.70;11.77;;;9.50;99.90;;;;;;5041136;28;20036;-87
2022/04/27 06:16:56;;;;;;;18.73;12.48;;;9.60;99.90;;;;;;5059501;28;20025;-85
2022/04/27 06:19:22;;;;;;;19.08;13.20;;;9.70;99.90;;;;;;5058886;28;20033;-83
2022/04/27 06:21:47;;;;;;;18.60;12.98;;;9.80;99.90;;;;;;5058817;28;20021;-85
2022/04/27 06:24:13;;;;;;;19.15;12.85;;;9.90;99.90;;;;;;5041609;28;20024;-84
2022/04/27 06:26:39;;;;;;;18.13;13.20;;;10.00;99.90;;;;;;5040930;28;20076;-84
2022/04/27 06:29:05;;;;;;;20.50;13.00;;;10.10;99.90;;;;;;5042195;28;20124;-83
2022/04/27 06:31:31;;;;;;;16.60;11.93;;;10.10;99.90;;;;;;5060237;28;20021;-82
2022/04/27 06:33:57;;;;;;;16.90;12.25;;;10.30;99.90;;;;;;5060056;28;20028;-85
2022/04/27 06:36:23;;;;;;;15.48;11.88;;;10.50;99.90;;;;;;5042034;28;20519;-86
2022/04/27 06:38:49;;;;;;;22.58;11.93;;;10.70;99.90;;;;;;5059170;28;20029;-85
2022/04/27 06:41:14;;;;;;;18.42;11.88;;;10.90;99.90;;;;;;5058980;28;20017;-83
2022/04/27 06:43:40;;;;;;;16.98;13.88;;;11.00;99.90;;;;;;5058227;28;20059;-86
2022/04/27 06:46:06;;;;;;;22.13;13.27;;;11.00;99.90;;;;;;5058938;28;20021;-87
2022/04/27 06:48:32;;;;;;;18.17;12.15;;;11.30;99.90;;;;;;5059947;28;20036;-83
2022/04/27 06:50:58;;;;;;;16.45;11.77;;;11.50;99.90;;;;;;5059197;28;20021;-85
2022/04/27 06:53:24;;;;;;;21.92;12.90;;;11.70;99.90;;;;;;5059070;28;20515;-85
2022/04/27 06:55:50;;;;;;;13.60;10.88;;;11.70;99.90;;;;;;5059141;28;20032;-84
2022/04/27 06:58:16;;;;;;;17.55;12.48;;;11.80;99.90;;;;;;5059106;28;20116;-86
2022/04/27 07:00:42;;;;;;;19.95;12.05;;;11.80;99.90;;;;;;5041490;28;20020;-86
2022/04/27 07:03:12;;;;;;;18.55;10.88;;;11.90;99.90;;;;;;5059512;28;20092;-83
2022/04/27 07:05:41;;;;;;;17.05;12.60;;;11.90;99.90;;;;;;5060188;28;20033;-82
2022/04/27 07:08:07;;;;;;;17.70;12.25;;;12.10;99.90;;;;;;5042865;28;20032;-85
2022/04/27 07:10:42;;;;;;;19.80;12.02;;;12.30;99.90;;;;;;5079226;28;20033;-84
2022/04/27 07:13:08;;;;;;;15.38;10.98;;;12.40;99.90;;;;;;5087939;28;20068;-83
2022/04/27 07:15:33;;;;;;;19.10;10.55;;;12.20;99.90;;;;;;5069255;28;20028;-85
2022/04/27 07:17:59;;;;;;;17.65;10.38;;;12.30;99.90;;;;;;5084950;28;20020;-84
2022/04/27 07:20:25;;;;;;;18.63;10.65;;;12.30;99.90;;;;;;5064592;28;20150;-84
2022/04/27 07:22:51;;;;;;;14.30;10.05;;;12.40;99.90;;;;;;5083052;28;20033;-84
2022/04/27 07:25:18;;;;;;;14.73;10.43;;;12.60;99.90;;;;;;5063913;28;20029;-82
2022/04/27 07:27:43;;;;;;;17.15;11.27;;;12.90;99.90;;;;;;5081730;28;20020;-82
2022/04/27 07:30:09;;;;;;;16.20;11.32;;;13.40;99.90;;;;;;5063972;28;20373;-85
2022/04/27 07:32:35;;;;;;;15.00;10.10;;;13.70;99.90;;;;;;5082253;28;20445;-85
2022/04/27 07:35:01;;;;;;;12.93;8.65;;;14.00;99.90;;;;;;5082297;28;20028;-87
2022/04/27 07:37:26;;;;;;;13.55;8.98;;;14.20;99.90;;;;;;5081159;28;20035;-85
2022/04/27 07:39:52;;;;;;;17.27;9.02;;;14.40;99.90;;;;;;5081194;28;20024;-87
2022/04/27 07:42:18;;;;;;;13.80;8.82;;;14.30;99.90;;;;;;5081289;28;20040;-83
2022/04/27 07:44:43;;;;;;;11.93;8.88;;;14.40;99.90;;;;;;5062936;28;20017;-87
2022/04/27 07:47:09;;;;;;;18.55;9.75;;;14.60;99.90;;;;;;5080699;28;20023;-86
2022/04/27 07:49:35;;;;;;;13.10;9.48;;;14.60;99.90;;;;;;5062509;28;20027;-84
2022/04/27 07:52:00;;;;;;;13.73;8.30;;;14.60;99.90;;;;;;5063698;28;20029;-83
2022/04/27 07:54:26;;;;;;;13.55;8.43;;;14.70;99.90;;;;;;5080445;28;20039;-85
2022/04/27 07:56:51;;;;;;;13.57;8.95;;;14.80;99.10;;;;;;5060808;28;20021;-84
2022/04/27 07:59:17;;;;;;;11.23;8.65;;;14.90;99.50;;;;;;5077884;28;20143;-83
2022/04/27 08:01:42;;;;;;;12.95;8.18;;;15.00;97.10;;;;;;5078154;28;20033;-83
2022/04/27 08:04:08;;;;;;;16.25;7.95;;;15.10;97.60;;;;;;5079845;28;20056;-84
2022/04/27 08:06:36;;;;;;;15.02;7.80;;;15.30;95.10;;;;;;5061693;28;20098;-85
2022/04/27 08:09:02;;;;;;;8.00;5.97;;;15.50;94.60;;;;;;5076903;28;20021;-86
2022/04/27 08:11:27;;;;;;;9.05;5.65;;;15.60;93.10;;;;;;5058688;28;20039;-84
2022/04/27 08:13:53;;;;;;;7.88;6.30;;;15.90;93.00;;;;;;5058785;28;20024;-83
2022/04/27 08:16:18;;;;;;;10.38;6.70;;;16.00;90.30;;;;;;5040609;28;20050;-85
2022/04/27 08:18:45;;;;;;;14.98;5.97;;;16.30;89.70;;;;;;5058635;28;20071;-86
2022/04/27 08:21:14;;;;;;;8.80;5.05;;;16.40;83.60;;;;;;5057912;28;20077;-83
2022/04/27 08:23:41;;;;;;;11.40;5.93;;;16.20;82.00;;;;;;5039875;28;20362;-86
2022/04/27 08:26:08;;;;;;;9.73;4.85;;;16.30;82.20;;;;;;5057705;28;20029;-85
2022/04/27 08:28:34;;;;;;;9.20;5.78;;;16.30;81.70;;;;;;5039302;28;20558;-83
2022/04/27 08:31:00;;;;;;;9.75;5.68;;;16.20;80.80;;;;;;5039633;28;20473;-84
2022/04/27 08:33:26;;;;;;;6.82;4.70;;;16.40;82.10;;;;;;5039548;28;20454;-87
2022/04/27 08:35:55;;;;;;;8.75;4.75;;;16.30;79.90;;;;;;5057836;28;20042;-84
2022/04/27 08:38:20;;;;;;;13.30;5.05;;;16.20;81.70;;;;;;5057525;28;20028;-86
2022/04/27 08:40:46;;;;;;;8.95;5.15;;;16.50;81.80;;;;;;5040123;28;20025;-82
2022/04/27 08:43:13;;;;;;;12.02;5.05;;;16.40;79.80;;;;;;5038755;28;20121;-84
2022/04/27 08:45:41;;;;;;;10.52;4.65;;;16.70;79.10;;;;;;5056641;28;20049;-85
2022/04/27 08:48:07;;;;;;;10.32;5.40;;;16.90;77.50;;;;;;5056348;28;20025;-86
2022/04/27 08:50:33;;;;;;;8.45;5.53;;;17.00;78.00;;;;;;5057226;28;20035;-86
2022/04/27 08:52:59;;;;;;;8.82;5.32;;;16.90;75.30;;;;;;5056502;28;20035;-85
2022/04/27 08:55:27;;;;;;;15.27;6.05;;;17.10;74.30;;;;;;5039769;28;20028;-87
2022/04/27 08:57:54;;;;;;;10.43;5.80;;;16.90;74.80;;;;;;5057422;28;20024;-87
2022/04/27 09:00:20;;;;;;;11.23;6.03;;;16.90;73.80;;;;;;5057761;28;20500;-85
2022/04/27 09:02:48;;;;;;;10.80;5.70;;;16.90;73.20;;;;;;5039245;28;20052;-85
2022/04/27 09:05:21;;;;;;;11.70;5.88;;;16.90;75.50;;;;;;5039508;28;20037;-86
2022/04/27 09:07:54;;;;;;;10.05;6.30;;;16.80;74.10;;;;;;5044096;28;20369;-84
2022/04/27 09:10:23;;;;;;;9.50;6.18;;;16.90;73.30;;;;;;5047766;28;20385;-86
2022/04/27 09:12:54;;;;;;;11.02;6.50;;;16.60;73.80;;;;;;5058627;28;20021;-85
2022/04/27 09:15:24;;;;;;;9.23;5.97;;;16.70;76.10;;;;;;5039634;28;20475;-87
2022/04/27 09:20:47;;;;;;;9.00;5.60;;;17.40;74.10;;;;;;5058487;28;20365;-88
2022/04/27 09:23:39;;;;;;;10.43;5.60;;;18.00;75.90;;;;;;5066689;28;20097;-79
2022/04/27 09:26:19;;;;;;;11.45;5.75;;;17.90;69.20;;;;;;5058027;28;20051;-82
2022/04/27 09:28:55;;;;;;;8.80;5.93;;;17.70;70.90;;;;;;5052366;28;20021;-82
2022/04/27 09:31:30;;;;;;;10.38;5.82;;;17.60;68.30;;;;;;5055375;28;20017;-87
2022/04/27 09:34:01;;;;;;;11.75;5.47;;;17.40;67.40;;;;;;5072873;28;20041;-83
2022/04/27 09:36:27;;;;;;;10.82;6.13;;;17.60;67.70;;;;;;5066121;28;20061;-85
2022/04/27 09:38:54;;;;;;;12.23;6.20;;;17.70;66.80;;;;;;5038459;28;20495;-86
2022/04/27 09:41:41;;;;;;;8.27;5.57;;;17.90;67.60;;;;;;5056929;28;20025;-84
2022/04/27 09:44:08;;;;;;;8.95;5.18;;;18.10;69.10;;;;;;5037835;28;20021;-86
2022/04/27 09:46:40;;;;;;;10.55;6.10;;;18.40;68.90;;;;;;5056761;28;20048;-87
2022/04/27 09:49:08;;;;;;;9.18;6.07;;;18.40;66.10;;;;;;5056197;28;20028;-83
2022/04/27 09:51:36;;;;;;;13.82;7.18;;;18.30;66.40;;;;;;5038338;28;20021;-86
2022/04/27 09:54:03;;;;;;;13.15;7.78;;;18.20;66.50;;;;;;5039077;28;20028;-85
2022/04/27 09:56:38;;;;;;;10.15;6.70;;;18.00;66.90;;;;;;5055585;28;20021;-86
2022/04/27 09:59:07;;;;;;;9.73;6.72;;;17.70;68.60;;;;;;5055818;28;20096;-85
2022/04/27 10:01:37;;;;;;;14.80;7.60;;;17.80;70.50;;;;;;5037599;28;20021;-85
2022/04/27 10:04:08;;;;;;;12.93;7.55;;;18.10;69.20;;;;;;5041967;28;20032;-84
2022/04/27 10:06:34;;;;;;;13.57;7.90;;;18.40;67.60;;;;;;5037685;28;20117;-85
2022/04/27 10:09:03;;;;;;;10.48;6.75;;;18.40;67.70;;;;;;5057390;28;20029;-84
2022/04/27 10:11:29;;;;;;;8.93;6.63;;;18.60;67.00;;;;;;5058882;28;20451;-83
2022/04/27 10:13:55;;;;;;;11.88;6.65;;;18.80;67.30;;;;;;5059298;28;20047;-84
2022/04/27 10:16:23;;;;;;;9.23;7.00;;;18.60;64.60;;;;;;5076120;28;20088;-85
2022/04/27 10:18:50;;;;;;;10.68;7.00;;;18.70;64.30;;;;;;5058543;28;20046;-86
2022/04/27 10:21:39;;;;;;;10.15;6.65;;;18.80;65.00;;;;;;5059057;28;20016;-87
2022/04/27 10:24:08;;;;;;;12.98;6.85;;;18.80;66.10;;;;;;5073740;28;20070;-84
2022/04/27 10:26:33;;;;;;;11.07;7.35;;;18.60;65.90;;;;;;5057712;28;20551;-87
2022/04/27 10:29:06;;;;;;;11.40;7.20;;;18.30;65.10;;;;;;5075124;28;20080;-85
2022/04/27 10:31:44;;;;;;;8.60;6.88;;;18.80;68.00;;;;;;5076323;28;20052;-88
2022/04/27 10:34:23;;;;;;;9.48;6.78;;;19.00;64.90;;;;;;5076065;28;20449;-85
2022/04/27 10:36:54;;;;;;;10.25;7.15;;;19.00;63.50;;;;;;5077490;28;20041;-84
2022/04/27 10:39:25;;;;;;;8.63;6.07;;;18.90;62.60;;;;;;5076954;28;20059;-86
2022/04/27 10:42:03;;;;;;;10.15;6.43;;;18.90;62.50;;;;;;5059078;28;20162;-84
2022/04/27 10:44:47;;;;;;;8.85;6.65;;;18.90;62.40;;;;;;5059020;28;20016;-85
2022/04/27 10:47:20;;;;;;;10.05;6.88;;;19.20;62.10;;;;;;5061276;28;20067;-86
2022/04/27 10:49:50;;;;;;;9.52;6.72;;;19.30;60.30;;;;;;5079933;28;20024;-84
2022/04/27 10:52:22;;;;;;;11.25;6.97;;;19.50;60.30;;;;;;5080209;28;20028;-84
2022/04/27 10:54:48;;;;;;;10.68;6.65;;;19.30;60.70;;;;;;5061187;28;20161;-82
2022/04/27 10:57:16;;;;;;;8.52;6.43;;;19.10;59.70;;;;;;5079233;28;20044;-84
2022/04/27 11:00:02;;;;;;;12.52;7.22;;;19.00;61.70;;;;;;5079157;28;20392;-86
2022/04/27 11:02:34;;;;;;;;;;;18.60;62.40;;;;;;5062835;28;20057;-85
2022/04/27 11:05:18;;;;;;;9.50;6.45;;;18.70;63.30;;;;;;5080132;28;20032;-86
2022/04/27 11:08:03;;;;;;;9.55;6.93;;;19.00;62.70;;;;;;5062144;28;20024;-83
2022/04/27 11:10:29;;;;;;;9.15;7.57;;;19.20;61.30;;;;;;5066287;28;20036;-83
2022/04/27 11:12:56;;;;;;;8.15;6.32;;;19.20;59.90;;;;;;5060541;28;20033;-85
2022/04/27 11:15:24;;;;;;;9.13;6.53;;;19.00;60.50;;;;;;5059924;28;20477;-84
2022/04/27 11:18:02;;;;;;;10.82;6.70;;;19.20;61.00;;;;;;5059645;28;20029;-84
2022/04/27 11:20:36;;;;;;;10.95;6.93;;;19.20;63.20;;;;;;5060108;28;20046;-88
2022/04/27 11:23:19;;;;;;;8.38;5.80;;;19.00;61.70;;;;;;5059802;28;20021;-86
2022/04/27 11:25:51;;;;;;;6.50;4.90;;;19.10;62.50;;;;;;5059838;28;20029;-87
2022/04/27 11:28:17;;;;;;;10.77;6.47;;;19.40;62.30;;;;;;5059285;28;20104;-84
2022/04/27 11:30:44;;;;;;;12.20;6.90;;;19.40;61.00;;;;;;5045478;28;20025;-85
2022/04/27 11:33:11;;;;;;;10.43;6.55;;;19.00;63.50;;;;;;5041923;28;20408;-85
2022/04/27 11:35:50;;;;;;;7.82;6.30;;;18.80;64.30;;;;;;5059946;28;20033;-87
2022/04/27 11:38:33;;;;;;;10.43;7.00;;;18.80;64.40;;;;;;5062668;28;20028;-85
2022/04/27 11:40:59;;;;;;;8.45;6.72;;;18.90;61.50;;;;;;5065173;28;20025;-86
2022/04/27 11:43:27;;;;;;;8.45;6.00;;;18.90;61.70;;;;;;5050837;28;20144;-88
2022/04/27 11:45:54;;;;;;;12.82;6.90;;;19.30;64.00;;;;;;5061291;28;20025;-83
2022/04/27 11:48:22;;;;;;;9.82;6.68;;;19.50;61.40;;;;;;5059573;28;20075;-88
2022/04/27 11:50:50;;;;;;;8.98;5.82;;;19.60;59.80;;;;;;5059140;28;20025;-86
2022/04/27 11:53:15;;;;;;;11.45;6.32;;;19.80;59.60;;;;;;5059647;28;20059;-84
2022/04/27 11:55:44;;;;;;;9.90;7.45;;;19.90;60.90;;;;;;5041427;28;20413;-83
2022/04/27 11:58:25;;;;;;;12.43;6.97;;;19.80;60.60;;;;;;5040986;28;20032;-88
2022/04/27 12:00:55;;;;;;;9.00;6.55;;;19.60;60.90;;;;;;5042128;28;20017;-85
2022/04/27 12:03:22;;;;;;;13.05;7.03;;;19.80;59.90;;;;;;5042341;28;20104;-87
2022/04/27 12:05:52;;;;;;;12.73;7.15;;;19.60;59.50;;;;;;5060055;28;20544;-86
2022/04/27 12:08:19;;;;;;;8.80;7.13;;;18.90;60.30;;;;;;5059357;28;20021;-83
2022/04/27 12:10:49;;;;;;;9.30;7.30;;;18.90;61.50;;;;;;5058992;28;20027;-84
2022/04/27 12:13:17;;;;;;;11.68;7.90;;;19.20;62.60;;;;;;5084635;28;20543;-85
2022/04/27 12:15:49;;;;;;;10.85;7.20;;;19.40;60.80;;;;;;5070642;28;20054;-85
2022/04/27 12:18:15;;;;;;;12.25;7.50;;;19.50;59.40;;;;;;5069716;28;20041;-83
2022/04/27 12:20:42;;;;;;;10.00;6.97;;;19.60;59.30;;;;;;5081325;28;20052;-86
2022/04/27 12:23:11;;;;;;;8.63;6.53;;;20.00;58.70;;;;;;5080106;28;20024;-84
2022/04/27 12:25:43;;;;;;;8.95;7.28;;;20.00;58.50;;;;;;5079804;28;20021;-86
2022/04/27 12:28:11;;;;;;;8.18;6.97;;;19.70;58.30;;;;;;5079139;28;20025;-85
2022/04/27 12:30:57;;;;;;;9.73;7.00;;;19.50;61.30;;;;;;5079787;28;20016;-86
2022/04/27 12:33:31;;;;;;;12.77;8.35;;;19.60;60.90;;;;;;5080114;28;20028;-84
2022/04/27 12:39:07;;;;;;;6.13;5.20;;;19.80;57.90;;;;;;5048390;28;20074;-88
2022/04/27 12:41:34;;;;;;;11.43;7.88;;;20.10;59.60;;;;;;5061281;28;20073;-87
2022/04/27 12:44:09;;;;;;;10.55;7.60;;;19.80;57.60;;;;;;5062514;28;20545;-88
2022/04/27 12:46:35;;;;;;;13.07;8.38;;;19.30;59.70;;;;;;5062719;28;20682;-85
2022/04/27 12:49:04;;;;;;;7.90;6.25;;;19.20;59.00;;;;;;5062973;28;20020;-86
2022/04/27 12:51:32;;;;;;;10.73;7.50;;;19.30;60.40;;;;;;5060717;28;20024;-84
2022/04/27 12:53:58;;;;;;;9.10;6.25;;;18.90;59.80;;;;;;5079324;28;20042;-84
2022/04/27 12:56:33;;;;;;;10.43;6.70;;;19.00;62.80;;;;;;5060838;28;20060;-84
2022/04/27 12:59:02;;;;;;;10.82;8.35;;;19.30;61.70;;;;;;5078650;28;20031;-87
2022/04/27 13:01:28;;;;;;;12.38;7.60;;;19.30;58.80;;;;;;5059851;28;20092;-86
2022/04/27 13:03:54;;;;;;;12.77;8.23;;;19.40;60.10;;;;;;5077721;28;20480;-83